Terminal Aerodrome Forecast
Issued by NWS Charleston, WV

Current Version | Previous Version | Graphics & Text | Print | Product List | Glossary On
Versions: 1 2 3 4 5 6 7 8 9 10 11 12 13 14 15 16 17 18 19 20 21 22 23 24 25 26
355
FTUS41 KRLX 291739
TAFPKB
TAF
KPKB 291739Z 2918/3018 VRB03KT 2SM TSRA BKN005 BKN035CB OVC050
     FM291900 VRB04KT 4SM -SHRA VCTS BKN005 BKN015CB OVC030
     FM300100 05004KT 5SM SHRA OVC015
     FM300400 08005KT 3SM -SHRA BR OVC008=

USA.gov is the U.S. government's official web portal to all federal, state and local government web resources and services.